sensor_id;sensor_type;location;lat;lon;timestamp;P1;durP1;ratioP1;P2;durP2;ratioP2
24206;SDS011;12351;52.284;9.160;2023-01-10T00:01:42;18.00;;;9.03;;
24206;SDS011;12351;52.284;9.160;2023-01-10T00:04:31;17.30;;;8.43;;
24206;SDS011;12351;52.284;9.160;2023-01-10T00:07:18;15.65;;;8.70;;
24206;SDS011;12351;52.284;9.160;2023-01-10T00:10:08;15.45;;;8.23;;
24206;SDS011;12351;52.284;9.160;2023-01-10T00:12:58;17.45;;;8.50;;
24206;SDS011;12351;52.284;9.160;2023-01-10T00:15:50;13.13;;;8.15;;
24206;SDS011;12351;52.284;9.160;2023-01-10T00:18:42;15.95;;;8.53;;
24206;SDS011;12351;52.284;9.160;2023-01-10T00:21:28;14.90;;;8.60;;
24206;SDS011;12351;52.284;9.160;2023-01-10T00:24:16;20.15;;;9.73;;
24206;SDS011;12351;52.284;9.160;2023-01-10T00:27:03;14.28;;;9.20;;
24206;SDS011;12351;52.284;9.160;2023-01-10T00:29:53;15.43;;;9.40;;
24206;SDS011;12351;52.284;9.160;2023-01-10T00:32:43;14.95;;;9.63;;
24206;SDS011;12351;52.284;9.160;2023-01-10T00:35:32;17.32;;;9.73;;
24206;SDS011;12351;52.284;9.160;2023-01-10T00:38:21;17.23;;;10.13;;
24206;SDS011;12351;52.284;9.160;2023-01-10T00:41:11;16.23;;;9.48;;
24206;SDS011;12351;52.284;9.160;2023-01-10T00:44:00;15.58;;;8.80;;
24206;SDS011;12351;52.284;9.160;2023-01-10T00:49:39;17.55;;;9.13;;
24206;SDS011;12351;52.284;9.160;2023-01-10T00:52:26;12.15;;;8.23;;
24206;SDS011;12351;52.284;9.160;2023-01-10T00:55:13;14.43;;;8.23;;
24206;SDS011;12351;52.284;9.160;2023-01-10T00:58:03;14.68;;;8.35;;
24206;SDS011;12351;52.284;9.160;2023-01-10T01:03:45;12.93;;;7.55;;
24206;SDS011;12351;52.284;9.160;2023-01-10T01:06:36;13.62;;;7.20;;
24206;SDS011;12351;52.284;9.160;2023-01-10T01:09:24;11.15;;;7.15;;
24206;SDS011;12351;52.284;9.160;2023-01-10T01:12:13;13.93;;;7.22;;
24206;SDS011;12351;52.284;9.160;2023-01-10T01:15:02;14.63;;;7.55;;
24206;SDS011;12351;52.284;9.160;2023-01-10T01:17:52;11.97;;;7.60;;
24206;SDS011;12351;52.284;9.160;2023-01-10T01:20:41;12.95;;;7.40;;
24206;SDS011;12351;52.284;9.160;2023-01-10T01:23:32;13.90;;;6.92;;
24206;SDS011;12351;52.284;9.160;2023-01-10T01:26:20;14.87;;;7.25;;
24206;SDS011;12351;52.284;9.160;2023-01-10T01:29:09;15.45;;;7.45;;
24206;SDS011;12351;52.284;9.160;2023-01-10T01:31:57;15.58;;;7.12;;
24206;SDS011;12351;52.284;9.160;2023-01-10T01:34:46;13.55;;;7.47;;
24206;SDS011;12351;52.284;9.160;2023-01-10T01:37:34;15.88;;;7.47;;
24206;SDS011;12351;52.284;9.160;2023-01-10T01:40:22;14.75;;;7.37;;
24206;SDS011;12351;52.284;9.160;2023-01-10T01:43:18;18.73;;;7.20;;
24206;SDS011;12351;52.284;9.160;2023-01-10T01:46:01;12.18;;;6.80;;
24206;SDS011;12351;52.284;9.160;2023-01-10T01:48:49;15.60;;;6.85;;
24206;SDS011;12351;52.284;9.160;2023-01-10T01:51:36;13.90;;;6.55;;
24206;SDS011;12351;52.284;9.160;2023-01-10T01:54:25;13.85;;;6.83;;
24206;SDS011;12351;52.284;9.160;2023-01-10T01:57:13;9.38;;;5.28;;
24206;SDS011;12351;52.284;9.160;2023-01-10T02:00:03;13.93;;;5.58;;
24206;SDS011;12351;52.284;9.160;2023-01-10T02:02:52;12.58;;;5.30;;
24206;SDS011;12351;52.284;9.160;2023-01-10T02:05:43;11.57;;;4.93;;
24206;SDS011;12351;52.284;9.160;2023-01-10T02:08:33;15.38;;;4.75;;
24206;SDS011;12351;52.284;9.160;2023-01-10T02:11:22;8.95;;;4.17;;
24206;SDS011;12351;52.284;9.160;2023-01-10T02:14:11;12.05;;;4.20;;
24206;SDS011;12351;52.284;9.160;2023-01-10T02:17:01;5.45;;;3.30;;
24206;SDS011;12351;52.284;9.160;2023-01-10T02:34:07;9.43;;;2.90;;
24206;SDS011;12351;52.284;9.160;2023-01-10T02:37:02;7.58;;;2.65;;
24206;SDS011;12351;52.284;9.160;2023-01-10T02:48:21;10.23;;;2.60;;
24206;SDS011;12351;52.284;9.160;2023-01-10T02:51:13;11.97;;;2.70;;
24206;SDS011;12351;52.284;9.160;2023-01-10T02:54:01;10.80;;;3.17;;
24206;SDS011;12351;52.284;9.160;2023-01-10T03:16:12;12.50;;;3.57;;
24206;SDS011;12351;52.284;9.160;2023-01-10T03:19:03;11.00;;;3.42;;
24206;SDS011;12351;52.284;9.160;2023-01-10T03:21:53;15.65;;;3.50;;
24206;SDS011;12351;52.284;9.160;2023-01-10T03:24:44;11.22;;;3.47;;
24206;SDS011;12351;52.284;9.160;2023-01-10T03:30:25;12.15;;;3.33;;
24206;SDS011;12351;52.284;9.160;2023-01-10T03:33:13;16.55;;;4.25;;
24206;SDS011;12351;52.284;9.160;2023-01-10T03:39:01;12.18;;;4.10;;
24206;SDS011;12351;52.284;9.160;2023-01-10T03:44:44;13.98;;;4.53;;
24206;SDS011;12351;52.284;9.160;2023-01-10T03:50:20;12.13;;;4.00;;
24206;SDS011;12351;52.284;9.160;2023-01-10T03:53:09;16.52;;;4.58;;
24206;SDS011;12351;52.284;9.160;2023-01-10T03:55:58;17.40;;;4.90;;
24206;SDS011;12351;52.284;9.160;2023-01-10T03:58:48;18.60;;;4.70;;
24206;SDS011;12351;52.284;9.160;2023-01-10T04:01:39;20.72;;;4.92;;
24206;SDS011;12351;52.284;9.160;2023-01-10T04:04:27;12.23;;;4.40;;
24206;SDS011;12351;52.284;9.160;2023-01-10T04:07:17;11.65;;;4.28;;
24206;SDS011;12351;52.284;9.160;2023-01-10T04:10:07;16.87;;;5.37;;
24206;SDS011;12351;52.284;9.160;2023-01-10T04:15:46;13.72;;;4.70;;
24206;SDS011;12351;52.284;9.160;2023-01-10T04:18:35;18.42;;;5.55;;
24206;SDS011;12351;52.284;9.160;2023-01-10T04:21:24;19.27;;;5.22;;
24206;SDS011;12351;52.284;9.160;2023-01-10T04:24:11;21.48;;;5.50;;
24206;SDS011;12351;52.284;9.160;2023-01-10T04:27:00;13.55;;;4.72;;
24206;SDS011;12351;52.284;9.160;2023-01-10T04:29:48;19.87;;;5.40;;
24206;SDS011;12351;52.284;9.160;2023-01-10T04:32:37;15.95;;;5.55;;
24206;SDS011;12351;52.284;9.160;2023-01-10T04:35:27;17.90;;;5.30;;
24206;SDS011;12351;52.284;9.160;2023-01-10T04:38:16;18.40;;;5.50;;
24206;SDS011;12351;52.284;9.160;2023-01-10T04:41:06;16.15;;;4.92;;
24206;SDS011;12351;52.284;9.160;2023-01-10T04:43:54;18.55;;;5.40;;
24206;SDS011;12351;52.284;9.160;2023-01-10T04:46:43;20.68;;;5.55;;
24206;SDS011;12351;52.284;9.160;2023-01-10T04:49:33;17.12;;;5.42;;
24206;SDS011;12351;52.284;9.160;2023-01-10T04:52:22;16.17;;;5.22;;
24206;SDS011;12351;52.284;9.160;2023-01-10T04:55:12;16.75;;;6.12;;
24206;SDS011;12351;52.284;9.160;2023-01-10T04:58:00;19.05;;;5.67;;
24206;SDS011;12351;52.284;9.160;2023-01-10T05:00:51;20.05;;;5.50;;
24206;SDS011;12351;52.284;9.160;2023-01-10T05:03:38;18.67;;;5.35;;
24206;SDS011;12351;52.284;9.160;2023-01-10T05:06:27;16.82;;;5.60;;
24206;SDS011;12351;52.284;9.160;2023-01-10T05:09:16;19.37;;;5.72;;
24206;SDS011;12351;52.284;9.160;2023-01-10T05:12:05;14.70;;;4.92;;
24206;SDS011;12351;52.284;9.160;2023-01-10T05:14:54;18.62;;;6.08;;
24206;SDS011;12351;52.284;9.160;2023-01-10T05:17:43;18.75;;;5.00;;
24206;SDS011;12351;52.284;9.160;2023-01-10T05:20:33;17.40;;;5.12;;
24206;SDS011;12351;52.284;9.160;2023-01-10T05:23:20;15.32;;;5.92;;
24206;SDS011;12351;52.284;9.160;2023-01-10T05:26:10;17.05;;;5.05;;
24206;SDS011;12351;52.284;9.160;2023-01-10T05:28:59;16.87;;;5.40;;
24206;SDS011;12351;52.284;9.160;2023-01-10T05:31:49;19.50;;;5.58;;
24206;SDS011;12351;52.284;9.160;2023-01-10T05:34:36;16.65;;;5.87;;
24206;SDS011;12351;52.284;9.160;2023-01-10T05:37:26;14.45;;;5.20;;
24206;SDS011;12351;52.284;9.160;2023-01-10T05:40:15;19.65;;;5.62;;
24206;SDS011;12351;52.284;9.160;2023-01-10T05:43:02;16.57;;;5.72;;
24206;SDS011;12351;52.284;9.160;2023-01-10T05:45:51;20.17;;;5.85;;
24206;SDS011;12351;52.284;9.160;2023-01-10T05:48:39;14.78;;;5.75;;
24206;SDS011;12351;52.284;9.160;2023-01-10T05:51:27;19.02;;;5.50;;
24206;SDS011;12351;52.284;9.160;2023-01-10T05:54:15;22.32;;;6.17;;
24206;SDS011;12351;52.284;9.160;2023-01-10T05:57:04;18.98;;;6.12;;
24206;SDS011;12351;52.284;9.160;2023-01-10T05:59:51;15.30;;;5.90;;
24206;SDS011;12351;52.284;9.160;2023-01-10T06:02:39;19.25;;;6.20;;
24206;SDS011;12351;52.284;9.160;2023-01-10T06:05:28;15.20;;;5.95;;
24206;SDS011;12351;52.284;9.160;2023-01-10T06:08:15;19.67;;;6.03;;
24206;SDS011;12351;52.284;9.160;2023-01-10T06:11:03;19.95;;;6.00;;
24206;SDS011;12351;52.284;9.160;2023-01-10T06:13:53;19.70;;;6.08;;
24206;SDS011;12351;52.284;9.160;2023-01-10T06:16:42;21.55;;;6.37;;
24206;SDS011;12351;52.284;9.160;2023-01-10T06:19:30;18.27;;;5.85;;
24206;SDS011;12351;52.284;9.160;2023-01-10T06:22:17;19.10;;;6.03;;
24206;SDS011;12351;52.284;9.160;2023-01-10T06:25:05;17.07;;;6.15;;
24206;SDS011;12351;52.284;9.160;2023-01-10T06:27:55;16.10;;;5.67;;
24206;SDS011;12351;52.284;9.160;2023-01-10T06:30:43;14.70;;;5.65;;
24206;SDS011;12351;52.284;9.160;2023-01-10T06:33:30;17.37;;;5.70;;
24206;SDS011;12351;52.284;9.160;2023-01-10T06:36:19;18.85;;;6.42;;
24206;SDS011;12351;52.284;9.160;2023-01-10T06:39:07;19.73;;;6.37;;
24206;SDS011;12351;52.284;9.160;2023-01-10T06:41:56;16.12;;;6.22;;
24206;SDS011;12351;52.284;9.160;2023-01-10T06:44:45;14.15;;;5.62;;
24206;SDS011;12351;52.284;9.160;2023-01-10T06:47:34;18.05;;;6.22;;
24206;SDS011;12351;52.284;9.160;2023-01-10T06:50:22;15.40;;;5.47;;
24206;SDS011;12351;52.284;9.160;2023-01-10T06:53:13;13.93;;;6.35;;
24206;SDS011;12351;52.284;9.160;2023-01-10T06:56:01;16.23;;;6.17;;
24206;SDS011;12351;52.284;9.160;2023-01-10T06:58:50;17.12;;;6.55;;
24206;SDS011;12351;52.284;9.160;2023-01-10T07:01:38;14.65;;;5.75;;
24206;SDS011;12351;52.284;9.160;2023-01-10T07:04:25;22.87;;;6.22;;
24206;SDS011;12351;52.284;9.160;2023-01-10T07:07:13;15.90;;;6.00;;
24206;SDS011;12351;52.284;9.160;2023-01-10T07:10:02;16.52;;;5.85;;
24206;SDS011;12351;52.284;9.160;2023-01-10T07:12:50;17.27;;;6.30;;
24206;SDS011;12351;52.284;9.160;2023-01-10T07:15:39;19.23;;;6.70;;
24206;SDS011;12351;52.284;9.160;2023-01-10T07:18:29;17.73;;;6.55;;
24206;SDS011;12351;52.284;9.160;2023-01-10T07:21:16;16.85;;;6.30;;
24206;SDS011;12351;52.284;9.160;2023-01-10T07:24:04;15.60;;;6.12;;
24206;SDS011;12351;52.284;9.160;2023-01-10T07:26:53;19.15;;;6.78;;
24206;SDS011;12351;52.284;9.160;2023-01-10T07:29:42;17.67;;;6.37;;
24206;SDS011;12351;52.284;9.160;2023-01-10T07:32:33;18.50;;;6.78;;
24206;SDS011;12351;52.284;9.160;2023-01-10T07:35:20;19.12;;;7.03;;
24206;SDS011;12351;52.284;9.160;2023-01-10T07:38:09;20.10;;;7.37;;
24206;SDS011;12351;52.284;9.160;2023-01-10T07:41:00;19.75;;;7.15;;
24206;SDS011;12351;52.284;9.160;2023-01-10T07:43:50;20.17;;;7.50;;
24206;SDS011;12351;52.284;9.160;2023-01-10T07:46:40;13.93;;;7.22;;
24206;SDS011;12351;52.284;9.160;2023-01-10T07:49:30;20.40;;;8.30;;
24206;SDS011;12351;52.284;9.160;2023-01-10T07:52:18;19.67;;;8.28;;
24206;SDS011;12351;52.284;9.160;2023-01-10T07:55:06;22.75;;;8.43;;
24206;SDS011;12351;52.284;9.160;2023-01-10T07:57:56;20.97;;;8.50;;
24206;SDS011;12351;52.284;9.160;2023-01-10T08:00:43;21.65;;;9.33;;
24206;SDS011;12351;52.284;9.160;2023-01-10T08:03:31;18.95;;;8.78;;
24206;SDS011;12351;52.284;9.160;2023-01-10T08:06:21;20.25;;;8.75;;
24206;SDS011;12351;52.284;9.160;2023-01-10T08:09:09;22.20;;;9.20;;
24206;SDS011;12351;52.284;9.160;2023-01-10T08:11:57;25.40;;;9.65;;
24206;SDS011;12351;52.284;9.160;2023-01-10T08:14:45;28.70;;;11.43;;
24206;SDS011;12351;52.284;9.160;2023-01-10T08:17:39;22.22;;;9.95;;
24206;SDS011;12351;52.284;9.160;2023-01-10T08:20:28;23.75;;;10.32;;
24206;SDS011;12351;52.284;9.160;2023-01-10T08:23:16;20.97;;;10.55;;
24206;SDS011;12351;52.284;9.160;2023-01-10T08:26:07;26.27;;;10.48;;
24206;SDS011;12351;52.284;9.160;2023-01-10T08:28:55;25.62;;;10.65;;
24206;SDS011;12351;52.284;9.160;2023-01-10T08:31:43;23.18;;;10.75;;
24206;SDS011;12351;52.284;9.160;2023-01-10T08:34:35;23.80;;;10.63;;
24206;SDS011;12351;52.284;9.160;2023-01-10T08:37:23;23.70;;;10.82;;
24206;SDS011;12351;52.284;9.160;2023-01-10T08:40:13;26.52;;;11.83;;
24206;SDS011;12351;52.284;9.160;2023-01-10T08:43:05;26.85;;;11.90;;
24206;SDS011;12351;52.284;9.160;2023-01-10T08:45:53;23.25;;;12.68;;
24206;SDS011;12351;52.284;9.160;2023-01-10T08:48:41;31.40;;;12.50;;
24206;SDS011;12351;52.284;9.160;2023-01-10T08:51:29;27.35;;;11.70;;
24206;SDS011;12351;52.284;9.160;2023-01-10T08:54:18;21.23;;;11.50;;
24206;SDS011;12351;52.284;9.160;2023-01-10T08:57:06;25.70;;;12.40;;
24206;SDS011;12351;52.284;9.160;2023-01-10T08:59:53;29.60;;;12.07;;
24206;SDS011;12351;52.284;9.160;2023-01-10T09:02:40;23.87;;;12.18;;
24206;SDS011;12351;52.284;9.160;2023-01-10T09:05:31;29.95;;;11.83;;
24206;SDS011;12351;52.284;9.160;2023-01-10T09:08:20;26.35;;;12.20;;
24206;SDS011;12351;52.284;9.160;2023-01-10T09:11:09;30.05;;;11.75;;
24206;SDS011;12351;52.284;9.160;2023-01-10T09:13:56;29.67;;;12.55;;
24206;SDS011;12351;52.284;9.160;2023-01-10T09:16:47;23.80;;;11.65;;
24206;SDS011;12351;52.284;9.160;2023-01-10T09:19:36;25.75;;;12.70;;
24206;SDS011;12351;52.284;9.160;2023-01-10T09:22:26;29.50;;;12.10;;
24206;SDS011;12351;52.284;9.160;2023-01-10T09:25:16;32.03;;;11.78;;
24206;SDS011;12351;52.284;9.160;2023-01-10T09:28:06;27.35;;;11.85;;
24206;SDS011;12351;52.284;9.160;2023-01-10T09:30:54;28.10;;;12.03;;
24206;SDS011;12351;52.284;9.160;2023-01-10T09:33:44;26.93;;;12.10;;
24206;SDS011;12351;52.284;9.160;2023-01-10T09:36:32;27.10;;;11.83;;
24206;SDS011;12351;52.284;9.160;2023-01-10T09:39:20;30.90;;;11.70;;
24206;SDS011;12351;52.284;9.160;2023-01-10T09:53:37;29.00;;;11.18;;
24206;SDS011;12351;52.284;9.160;2023-01-10T09:56:26;23.15;;;10.23;;
24206;SDS011;12351;52.284;9.160;2023-01-10T09:59:16;24.60;;;10.10;;
24206;SDS011;12351;52.284;9.160;2023-01-10T10:07:50;25.62;;;10.18;;
24206;SDS011;12351;52.284;9.160;2023-01-10T10:10:40;23.50;;;9.83;;
24206;SDS011;12351;52.284;9.160;2023-01-10T10:13:32;26.17;;;10.32;;
24206;SDS011;12351;52.284;9.160;2023-01-10T10:33:31;27.42;;;11.12;;
24206;SDS011;12351;52.284;9.160;2023-01-10T10:36:20;31.73;;;10.80;;
24206;SDS011;12351;52.284;9.160;2023-01-10T10:39:12;27.20;;;12.03;;
24206;SDS011;12351;52.284;9.160;2023-01-10T10:41:59;29.87;;;11.57;;
24206;SDS011;12351;52.284;9.160;2023-01-10T10:44:51;32.20;;;11.12;;
24206;SDS011;12351;52.284;9.160;2023-01-10T10:47:38;32.48;;;11.48;;
24206;SDS011;12351;52.284;9.160;2023-01-10T10:50:30;25.60;;;10.68;;
24206;SDS011;12351;52.284;9.160;2023-01-10T10:53:19;23.38;;;10.23;;
24206;SDS011;12351;52.284;9.160;2023-01-10T10:56:10;25.97;;;10.18;;
24206;SDS011;12351;52.284;9.160;2023-01-10T10:58:58;32.03;;;10.15;;
24206;SDS011;12351;52.284;9.160;2023-01-10T11:01:48;27.48;;;9.80;;
24206;SDS011;12351;52.284;9.160;2023-01-10T11:04:39;33.15;;;9.38;;
24206;SDS011;12351;52.284;9.160;2023-01-10T11:07:30;28.52;;;9.43;;
24206;SDS011;12351;52.284;9.160;2023-01-10T11:10:20;28.42;;;9.83;;
24206;SDS011;12351;52.284;9.160;2023-01-10T11:16:03;27.52;;;9.83;;
24206;SDS011;12351;52.284;9.160;2023-01-10T11:21:44;28.10;;;9.30;;
24206;SDS011;12351;52.284;9.160;2023-01-10T11:24:33;29.90;;;9.30;;
24206;SDS011;12351;52.284;9.160;2023-01-10T11:27:25;23.25;;;8.50;;
24206;SDS011;12351;52.284;9.160;2023-01-10T11:30:17;20.92;;;8.38;;
24206;SDS011;12351;52.284;9.160;2023-01-10T11:33:07;31.55;;;8.58;;
24206;SDS011;12351;52.284;9.160;2023-01-10T11:35:58;22.42;;;7.37;;
24206;SDS011;12351;52.284;9.160;2023-01-10T11:39:05;26.65;;;8.20;;
24206;SDS011;12351;52.284;9.160;2023-01-10T11:41:40;25.17;;;7.67;;
24206;SDS011;12351;52.284;9.160;2023-01-10T11:44:28;23.00;;;7.08;;
24206;SDS011;12351;52.284;9.160;2023-01-10T11:47:17;22.40;;;8.10;;
24206;SDS011;12351;52.284;9.160;2023-01-10T11:50:07;26.82;;;8.15;;
24206;SDS011;12351;52.284;9.160;2023-01-10T11:52:57;22.87;;;7.83;;
24206;SDS011;12351;52.284;9.160;2023-01-10T11:55:45;28.87;;;8.13;;
24206;SDS011;12351;52.284;9.160;2023-01-10T11:58:35;19.60;;;7.03;;
24206;SDS011;12351;52.284;9.160;2023-01-10T12:01:28;26.33;;;7.62;;
24206;SDS011;12351;52.284;9.160;2023-01-10T12:04:18;21.27;;;7.92;;
24206;SDS011;12351;52.284;9.160;2023-01-10T12:07:08;20.68;;;7.22;;
24206;SDS011;12351;52.284;9.160;2023-01-10T12:09:57;27.40;;;7.10;;
24206;SDS011;12351;52.284;9.160;2023-01-10T12:15:36;18.95;;;6.67;;
24206;SDS011;12351;52.284;9.160;2023-01-10T12:18:25;23.05;;;6.90;;
24206;SDS011;12351;52.284;9.160;2023-01-10T12:21:15;21.07;;;6.35;;
24206;SDS011;12351;52.284;9.160;2023-01-10T12:24:11;24.72;;;6.62;;
24206;SDS011;12351;52.284;9.160;2023-01-10T12:26:56;22.07;;;7.28;;
24206;SDS011;12351;52.284;9.160;2023-01-10T12:29:49;25.32;;;7.47;;
24206;SDS011;12351;52.284;9.160;2023-01-10T12:32:41;21.93;;;7.33;;
24206;SDS011;12351;52.284;9.160;2023-01-10T12:35:33;21.60;;;7.30;;
24206;SDS011;12351;52.284;9.160;2023-01-10T12:41:10;23.47;;;6.10;;
24206;SDS011;12351;52.284;9.160;2023-01-10T12:44:02;24.20;;;6.62;;
24206;SDS011;12351;52.284;9.160;2023-01-10T12:46:55;22.52;;;6.40;;
24206;SDS011;12351;52.284;9.160;2023-01-10T12:49:46;23.65;;;6.40;;
24206;SDS011;12351;52.284;9.160;2023-01-10T12:52:38;27.07;;;7.20;;
24206;SDS011;12351;52.284;9.160;2023-01-10T12:55:29;17.65;;;6.33;;
24206;SDS011;12351;52.284;9.160;2023-01-10T12:58:20;25.43;;;6.62;;
24206;SDS011;12351;52.284;9.160;2023-01-10T13:04:00;21.73;;;5.87;;
24206;SDS011;12351;52.284;9.160;2023-01-10T13:06:49;22.45;;;5.80;;
24206;SDS011;12351;52.284;9.160;2023-01-10T13:09:39;20.08;;;5.28;;
24206;SDS011;12351;52.284;9.160;2023-01-10T13:12:31;24.82;;;6.35;;
24206;SDS011;12351;52.284;9.160;2023-01-10T13:18:18;29.87;;;5.60;;
24206;SDS011;12351;52.284;9.160;2023-01-10T13:21:07;15.78;;;5.25;;
24206;SDS011;12351;52.284;9.160;2023-01-10T13:29:40;20.48;;;4.58;;
24206;SDS011;12351;52.284;9.160;2023-01-10T13:32:32;16.45;;;4.65;;
24206;SDS011;12351;52.284;9.160;2023-01-10T13:35:20;17.87;;;4.67;;
24206;SDS011;12351;52.284;9.160;2023-01-10T13:46:39;24.32;;;5.15;;
24206;SDS011;12351;52.284;9.160;2023-01-10T13:58:01;17.95;;;4.00;;
24206;SDS011;12351;52.284;9.160;2023-01-10T14:00:50;20.30;;;4.53;;
24206;SDS011;12351;52.284;9.160;2023-01-10T14:06:33;14.03;;;4.12;;
24206;SDS011;12351;52.284;9.160;2023-01-10T14:12:16;17.73;;;4.35;;
24206;SDS011;12351;52.284;9.160;2023-01-10T14:15:18;14.90;;;4.05;;
24206;SDS011;12351;52.284;9.160;2023-01-10T14:17:58;14.98;;;3.70;;
24206;SDS011;12351;52.284;9.160;2023-01-10T14:23:38;20.10;;;4.70;;
24206;SDS011;12351;52.284;9.160;2023-01-10T14:29:06;19.23;;;5.03;;
24206;SDS011;12351;52.284;9.160;2023-01-10T14:31:58;20.20;;;5.67;;
24206;SDS011;12351;52.284;9.160;2023-01-10T14:34:46;19.23;;;5.58;;
24206;SDS011;12351;52.284;9.160;2023-01-10T14:37:38;17.77;;;5.53;;
24206;SDS011;12351;52.284;9.160;2023-01-10T14:40:28;26.40;;;5.97;;
24206;SDS011;12351;52.284;9.160;2023-01-10T14:43:24;19.02;;;4.58;;
24206;SDS011;12351;52.284;9.160;2023-01-10T14:46:10;22.15;;;5.58;;
24206;SDS011;12351;52.284;9.160;2023-01-10T14:49:00;19.35;;;4.05;;
24206;SDS011;12351;52.284;9.160;2023-01-10T14:51:48;14.90;;;3.60;;
24206;SDS011;12351;52.284;9.160;2023-01-10T14:54:36;20.20;;;3.65;;
24206;SDS011;12351;52.284;9.160;2023-01-10T14:57:23;18.77;;;3.87;;
24206;SDS011;12351;52.284;9.160;2023-01-10T15:00:15;19.12;;;3.20;;
24206;SDS011;12351;52.284;9.160;2023-01-10T15:03:03;10.72;;;3.30;;
24206;SDS011;12351;52.284;9.160;2023-01-10T15:05:53;17.85;;;3.87;;
24206;SDS011;12351;52.284;9.160;2023-01-10T15:08:45;16.50;;;3.87;;
24206;SDS011;12351;52.284;9.160;2023-01-10T15:11:33;13.25;;;3.25;;
24206;SDS011;12351;52.284;9.160;2023-01-10T15:14:22;13.55;;;3.20;;
24206;SDS011;12351;52.284;9.160;2023-01-10T15:17:12;13.60;;;2.72;;
24206;SDS011;12351;52.284;9.160;2023-01-10T15:20:04;14.68;;;3.10;;
24206;SDS011;12351;52.284;9.160;2023-01-10T15:22:53;12.58;;;3.00;;
24206;SDS011;12351;52.284;9.160;2023-01-10T15:25:43;14.63;;;2.83;;
24206;SDS011;12351;52.284;9.160;2023-01-10T15:28:33;16.37;;;3.00;;
24206;SDS011;12351;52.284;9.160;2023-01-10T15:31:21;15.18;;;2.65;;
24206;SDS011;12351;52.284;9.160;2023-01-10T15:34:10;11.60;;;2.80;;
24206;SDS011;12351;52.284;9.160;2023-01-10T15:36:59;15.08;;;2.60;;
24206;SDS011;12351;52.284;9.160;2023-01-10T15:39:49;13.05;;;3.27;;
24206;SDS011;12351;52.284;9.160;2023-01-10T15:42:40;13.18;;;3.10;;
24206;SDS011;12351;52.284;9.160;2023-01-10T15:45:31;15.13;;;3.10;;
24206;SDS011;12351;52.284;9.160;2023-01-10T15:51:12;10.57;;;2.80;;
24206;SDS011;12351;52.284;9.160;2023-01-10T15:56:59;12.45;;;2.37;;
24206;SDS011;12351;52.284;9.160;2023-01-10T15:59:50;18.05;;;3.35;;
24206;SDS011;12351;52.284;9.160;2023-01-10T16:02:38;11.45;;;2.25;;
24206;SDS011;12351;52.284;9.160;2023-01-10T16:05:27;13.72;;;2.40;;
24206;SDS011;12351;52.284;9.160;2023-01-10T16:08:15;13.62;;;2.60;;
24206;SDS011;12351;52.284;9.160;2023-01-10T16:11:05;10.65;;;1.75;;
24206;SDS011;12351;52.284;9.160;2023-01-10T16:13:54;8.15;;;2.08;;
24206;SDS011;12351;52.284;9.160;2023-01-10T16:16:43;14.43;;;2.17;;
24206;SDS011;12351;52.284;9.160;2023-01-10T16:19:32;12.75;;;2.40;;
24206;SDS011;12351;52.284;9.160;2023-01-10T16:22:21;14.47;;;2.22;;
24206;SDS011;12351;52.284;9.160;2023-01-10T16:25:12;13.30;;;2.00;;
24206;SDS011;12351;52.284;9.160;2023-01-10T16:28:00;10.45;;;2.17;;
24206;SDS011;12351;52.284;9.160;2023-01-10T16:30:48;11.90;;;2.40;;
24206;SDS011;12351;52.284;9.160;2023-01-10T16:33:37;16.30;;;2.50;;
24206;SDS011;12351;52.284;9.160;2023-01-10T16:36:25;11.73;;;2.22;;
24206;SDS011;12351;52.284;9.160;2023-01-10T16:39:17;12.25;;;2.20;;
24206;SDS011;12351;52.284;9.160;2023-01-10T16:42:07;13.10;;;1.95;;
24206;SDS011;12351;52.284;9.160;2023-01-10T16:44:56;10.13;;;1.95;;
24206;SDS011;12351;52.284;9.160;2023-01-10T16:47:44;10.63;;;2.33;;
24206;SDS011;12351;52.284;9.160;2023-01-10T16:50:33;14.18;;;2.05;;
24206;SDS011;12351;52.284;9.160;2023-01-10T16:53:21;10.72;;;2.08;;
24206;SDS011;12351;52.284;9.160;2023-01-10T16:56:11;9.98;;;2.00;;
24206;SDS011;12351;52.284;9.160;2023-01-10T16:58:59;11.78;;;2.10;;
24206;SDS011;12351;52.284;9.160;2023-01-10T17:04:38;9.10;;;2.00;;
24206;SDS011;12351;52.284;9.160;2023-01-10T17:07:25;11.75;;;2.10;;
24206;SDS011;12351;52.284;9.160;2023-01-10T17:10:14;12.13;;;1.80;;
24206;SDS011;12351;52.284;9.160;2023-01-10T17:13:04;8.48;;;1.85;;
24206;SDS011;12351;52.284;9.160;2023-01-10T17:15:56;10.32;;;2.02;;
24206;SDS011;12351;52.284;9.160;2023-01-10T17:18:43;14.90;;;2.17;;
24206;SDS011;12351;52.284;9.160;2023-01-10T17:21:33;13.83;;;2.15;;
24206;SDS011;12351;52.284;9.160;2023-01-10T17:24:20;10.15;;;2.33;;
24206;SDS011;12351;52.284;9.160;2023-01-10T17:27:08;9.90;;;2.15;;
24206;SDS011;12351;52.284;9.160;2023-01-10T17:29:56;11.97;;;1.95;;
24206;SDS011;12351;52.284;9.160;2023-01-10T17:32:46;6.80;;;1.70;;
24206;SDS011;12351;52.284;9.160;2023-01-10T17:35:39;12.00;;;2.00;;
24206;SDS011;12351;52.284;9.160;2023-01-10T17:38:28;8.90;;;2.08;;
24206;SDS011;12351;52.284;9.160;2023-01-10T17:41:19;8.85;;;1.85;;
24206;SDS011;12351;52.284;9.160;2023-01-10T17:44:07;8.38;;;2.02;;
24206;SDS011;12351;52.284;9.160;2023-01-10T17:46:56;9.63;;;2.47;;
24206;SDS011;12351;52.284;9.160;2023-01-10T17:49:46;8.68;;;1.85;;
24206;SDS011;12351;52.284;9.160;2023-01-10T17:52:36;12.45;;;2.02;;
24206;SDS011;12351;52.284;9.160;2023-01-10T17:55:23;11.38;;;2.37;;
24206;SDS011;12351;52.284;9.160;2023-01-10T17:58:11;10.45;;;2.20;;
24206;SDS011;12351;52.284;9.160;2023-01-10T18:00:59;11.60;;;2.17;;
24206;SDS011;12351;52.284;9.160;2023-01-10T18:03:46;10.85;;;2.20;;
24206;SDS011;12351;52.284;9.160;2023-01-10T18:06:38;7.03;;;2.02;;
24206;SDS011;12351;52.284;9.160;2023-01-10T18:09:26;12.70;;;2.80;;
24206;SDS011;12351;52.284;9.160;2023-01-10T18:12:13;12.58;;;2.42;;
24206;SDS011;12351;52.284;9.160;2023-01-10T18:15:01;11.60;;;2.58;;
24206;SDS011;12351;52.284;9.160;2023-01-10T18:17:51;12.90;;;2.27;;
24206;SDS011;12351;52.284;9.160;2023-01-10T18:20:40;9.45;;;1.95;;
24206;SDS011;12351;52.284;9.160;2023-01-10T18:23:29;8.23;;;1.75;;
24206;SDS011;12351;52.284;9.160;2023-01-10T18:26:20;8.93;;;1.77;;
24206;SDS011;12351;52.284;9.160;2023-01-10T18:29:08;8.58;;;1.80;;
24206;SDS011;12351;52.284;9.160;2023-01-10T18:31:56;14.83;;;2.30;;
24206;SDS011;12351;52.284;9.160;2023-01-10T18:34:45;15.35;;;2.33;;
24206;SDS011;12351;52.284;9.160;2023-01-10T18:37:34;7.17;;;1.50;;
24206;SDS011;12351;52.284;9.160;2023-01-10T18:40:23;15.23;;;2.70;;
24206;SDS011;12351;52.284;9.160;2023-01-10T18:43:14;9.88;;;2.20;;
24206;SDS011;12351;52.284;9.160;2023-01-10T18:46:03;10.20;;;1.90;;
24206;SDS011;12351;52.284;9.160;2023-01-10T18:48:52;15.05;;;2.20;;
24206;SDS011;12351;52.284;9.160;2023-01-10T18:51:39;10.63;;;2.00;;
24206;SDS011;12351;52.284;9.160;2023-01-10T18:54:27;10.20;;;2.12;;
24206;SDS011;12351;52.284;9.160;2023-01-10T18:57:18;8.23;;;2.12;;
24206;SDS011;12351;52.284;9.160;2023-01-10T19:00:10;14.33;;;2.60;;
24206;SDS011;12351;52.284;9.160;2023-01-10T19:03:00;9.70;;;2.20;;
24206;SDS011;12351;52.284;9.160;2023-01-10T19:05:50;11.48;;;2.10;;
24206;SDS011;12351;52.284;9.160;2023-01-10T19:08:42;12.37;;;2.25;;
24206;SDS011;12351;52.284;9.160;2023-01-10T19:11:32;11.75;;;2.12;;
24206;SDS011;12351;52.284;9.160;2023-01-10T19:14:20;9.90;;;2.33;;
24206;SDS011;12351;52.284;9.160;2023-01-10T19:17:08;12.13;;;2.47;;
24206;SDS011;12351;52.284;9.160;2023-01-10T19:19:56;11.53;;;2.17;;